AFR51ZX LFPG-LFBO
Flight info
| Callsign | AFR51ZX |
|---|---|
| Flight time | 1h 0m |
| Altitude | 29000 |
| Route | ERIXU DCT ETAMO DCT GUERE DCT NARAK |
| Aircraft | A320/M-SDE2E3FGIJ1RWY/HB1 |
Departure
| Time | 2026-05-08 14:05 |
|---|---|
| Airport | Charles de Gaulle International Airport (LFPG) |
Arrival
| Time | 2026-05-08 15:06 |
|---|---|
| Airport | Toulouse-Blagnac Airport (LFBO) |
| Time | Latitude | Longitude | Altitude | Speed | Heading |
|---|---|---|---|---|---|
| 2026-05-08 13:23 | 49.00630 | 2.57598 | 361 ft | 0 kts | 261° |
| 2026-05-08 13:53 | 49.00633 | 2.57623 | 363 ft | 4 kts | 262° |
| 2026-05-08 13:54 | 49.00636 | 2.57654 | 358 ft | 4 kts | 279° |
| 2026-05-08 13:54 | 49.00623 | 2.57680 | 355 ft | 4 kts | 333° |
| 2026-05-08 13:54 | 49.00628 | 2.57677 | 356 ft | 4 kts | 340° |
| 2026-05-08 13:54 | 49.00655 | 2.57672 | 357 ft | 4 kts | 356° |
| 2026-05-08 13:55 | 49.00665 | 2.57671 | 354 ft | 0 kts | 355° |
| 2026-05-08 13:57 | 49.00666 | 2.57671 | 354 ft | 1 kts | 355° |
| 2026-05-08 13:57 | 49.00689 | 2.57668 | 354 ft | 6 kts | 356° |
| 2026-05-08 13:57 | 49.00744 | 2.57656 | 357 ft | 10 kts | 341° |
| 2026-05-08 13:58 | 49.00808 | 2.57592 | 356 ft | 12 kts | 325° |
| 2026-05-08 13:58 | 49.00875 | 2.57517 | 359 ft | 12 kts | 290° |
| 2026-05-08 13:58 | 49.00868 | 2.57371 | 354 ft | 16 kts | 264° |
| 2026-05-08 13:58 | 49.00857 | 2.57209 | 356 ft | 15 kts | 265° |
| 2026-05-08 13:59 | 49.00852 | 2.57054 | 360 ft | 15 kts | 267° |
| 2026-05-08 13:59 | 49.00841 | 2.56879 | 354 ft | 17 kts | 264° |
| 2026-05-08 13:59 | 49.00835 | 2.56685 | 354 ft | 20 kts | 266° |
| 2026-05-08 13:59 | 49.00816 | 2.56489 | 354 ft | 18 kts | 260° |
| 2026-05-08 14:00 | 49.00803 | 2.56312 | 354 ft | 16 kts | 261° |
| 2026-05-08 14:00 | 49.00787 | 2.56154 | 354 ft | 14 kts | 261° |
| 2026-05-08 14:00 | 49.00772 | 2.56013 | 356 ft | 13 kts | 261° |
| 2026-05-08 14:00 | 49.00759 | 2.55838 | 354 ft | 18 kts | 263° |
| 2026-05-08 14:01 | 49.00742 | 2.55654 | 354 ft | 17 kts | 263° |
| 2026-05-08 14:01 | 49.00727 | 2.55455 | 354 ft | 19 kts | 263° |
| 2026-05-08 14:01 | 49.00686 | 2.55278 | 354 ft | 19 kts | 235° |
| 2026-05-08 14:01 | 49.00603 | 2.55271 | 356 ft | 14 kts | 160° |
| 2026-05-08 14:02 | 49.00481 | 2.55318 | 358 ft | 21 kts | 166° |
| 2026-05-08 14:02 | 49.00336 | 2.55380 | 357 ft | 22 kts | 163° |
| 2026-05-08 14:02 | 49.00181 | 2.55448 | 354 ft | 24 kts | 163° |
| 2026-05-08 14:02 | 49.00025 | 2.55515 | 357 ft | 21 kts | 166° |
| 2026-05-08 14:03 | 48.99910 | 2.55567 | 359 ft | 15 kts | 156° |
| 2026-05-08 14:03 | 48.99848 | 2.55683 | 359 ft | 15 kts | 112° |
| 2026-05-08 14:03 | 48.99812 | 2.55809 | 356 ft | 8 kts | 108° |
| 2026-05-08 14:03 | 48.99802 | 2.55919 | 357 ft | 13 kts | 99° |
| 2026-05-08 14:04 | 48.99756 | 2.56033 | 357 ft | 13 kts | 174° |
| 2026-05-08 14:04 | 48.99666 | 2.56039 | 360 ft | 12 kts | 174° |
| 2026-05-08 14:04 | 48.99613 | 2.56085 | 355 ft | 7 kts | 95° |
| 2026-05-08 14:04 | 48.99619 | 2.56185 | 356 ft | 18 kts | 85° |
| 2026-05-08 14:05 | 48.99652 | 2.56775 | 355 ft | 90 kts | 85° |
| 2026-05-08 14:05 | 48.99718 | 2.58029 | 355 ft | 145 kts | 85° |
| 2026-05-08 14:05 | 48.99809 | 2.59729 | 671 ft | 165 kts | 85° |
| 2026-05-08 14:05 | 48.99902 | 2.61473 | 1397 ft | 166 kts | 85° |
| 2026-05-08 14:06 | 48.99995 | 2.63229 | 2117 ft | 166 kts | 85° |
| 2026-05-08 14:06 | 49.00085 | 2.64975 | 2810 ft | 166 kts | 85° |
| 2026-05-08 14:06 | 49.00175 | 2.66735 | 3458 ft | 167 kts | 85° |
| 2026-05-08 14:06 | 49.00269 | 2.68583 | 3839 ft | 185 kts | 85° |
| 2026-05-08 14:07 | 49.00374 | 2.70642 | 4177 ft | 205 kts | 85° |
| 2026-05-08 14:07 | 49.00492 | 2.72931 | 4471 ft | 229 kts | 85° |
| 2026-05-08 14:07 | 49.00623 | 2.75463 | 4933 ft | 249 kts | 85° |
| 2026-05-08 14:07 | 49.00713 | 2.78132 | 5695 ft | 255 kts | 94° |
| 2026-05-08 14:08 | 49.00480 | 2.80845 | 6536 ft | 260 kts | 98° |
| 2026-05-08 14:08 | 49.00192 | 2.83573 | 7352 ft | 264 kts | 100° |
| 2026-05-08 14:08 | 48.99886 | 2.86360 | 8106 ft | 270 kts | 100° |
| 2026-05-08 14:08 | 48.99572 | 2.89201 | 8916 ft | 275 kts | 100° |
| 2026-05-08 14:09 | 48.99256 | 2.92085 | 9751 ft | 278 kts | 101° |
| 2026-05-08 14:09 | 48.98941 | 2.95017 | 10478 ft | 283 kts | 100° |
| 2026-05-08 14:09 | 48.98580 | 2.97984 | 11174 ft | 287 kts | 111° |
| 2026-05-08 14:09 | 48.97468 | 3.00440 | 11884 ft | 284 kts | 145° |
| 2026-05-08 14:10 | 48.95685 | 3.01606 | 12594 ft | 281 kts | 174° |
| 2026-05-08 14:10 | 48.93740 | 3.01559 | 13322 ft | 281 kts | 193° |
| 2026-05-08 14:10 | 48.91921 | 3.00500 | 14026 ft | 282 kts | 214° |
| 2026-05-08 14:10 | 48.90500 | 2.98462 | 14669 ft | 284 kts | 237° |
| 2026-05-08 14:11 | 48.89719 | 2.95695 | 15222 ft | 293 kts | 253° |
| 2026-05-08 14:11 | 48.89161 | 2.92596 | 15345 ft | 315 kts | 254° |
| 2026-05-08 14:11 | 48.88595 | 2.89281 | 15644 ft | 330 kts | 255° |
| 2026-05-08 14:11 | 48.88022 | 2.85877 | 16225 ft | 335 kts | 255° |
| 2026-05-08 14:12 | 48.87441 | 2.82426 | 16863 ft | 339 kts | 255° |
| 2026-05-08 14:12 | 48.86832 | 2.78961 | 17516 ft | 341 kts | 250° |
| 2026-05-08 14:12 | 48.85727 | 2.75765 | 18138 ft | 344 kts | 232° |
| 2026-05-08 14:12 | 48.83949 | 2.73327 | 18703 ft | 348 kts | 212° |
| 2026-05-08 14:13 | 48.81688 | 2.71973 | 19251 ft | 355 kts | 192° |
| 2026-05-08 14:13 | 48.79212 | 2.71646 | 19791 ft | 359 kts | 185° |
| 2026-05-08 14:13 | 48.76705 | 2.71457 | 20335 ft | 363 kts | 185° |
| 2026-05-08 14:13 | 48.74173 | 2.71277 | 20889 ft | 365 kts | 185° |
| 2026-05-08 14:14 | 48.71620 | 2.71099 | 21427 ft | 369 kts | 185° |
| 2026-05-08 14:14 | 48.69057 | 2.70865 | 21960 ft | 371 kts | 187° |
| 2026-05-08 14:14 | 48.66474 | 2.70442 | 22492 ft | 374 kts | 190° |
| 2026-05-08 14:14 | 48.63892 | 2.69893 | 23028 ft | 376 kts | 191° |
| 2026-05-08 14:15 | 48.61295 | 2.69285 | 23542 ft | 380 kts | 192° |
| 2026-05-08 14:15 | 48.58670 | 2.68661 | 23934 ft | 385 kts | 192° |
| 2026-05-08 14:15 | 48.56006 | 2.68049 | 24327 ft | 389 kts | 192° |
| 2026-05-08 14:15 | 48.53315 | 2.67454 | 24715 ft | 393 kts | 192° |
| 2026-05-08 14:16 | 48.50588 | 2.66875 | 25082 ft | 398 kts | 192° |
| 2026-05-08 14:16 | 48.47835 | 2.66307 | 25464 ft | 402 kts | 192° |
| 2026-05-08 14:16 | 48.45052 | 2.65742 | 25824 ft | 406 kts | 192° |
| 2026-05-08 14:16 | 48.42239 | 2.65169 | 26184 ft | 410 kts | 192° |
| 2026-05-08 14:17 | 48.39405 | 2.64591 | 26499 ft | 414 kts | 193° |
| 2026-05-08 14:17 | 48.36513 | 2.63993 | 26638 ft | 424 kts | 193° |
| 2026-05-08 14:17 | 48.33575 | 2.63381 | 26845 ft | 430 kts | 193° |
| 2026-05-08 14:17 | 48.30597 | 2.62760 | 27150 ft | 434 kts | 193° |
| 2026-05-08 14:18 | 48.27597 | 2.62140 | 27460 ft | 437 kts | 193° |
| 2026-05-08 14:18 | 48.24571 | 2.61519 | 27782 ft | 440 kts | 193° |
| 2026-05-08 14:18 | 48.21522 | 2.60893 | 28102 ft | 443 kts | 193° |
| 2026-05-08 14:18 | 48.18453 | 2.60264 | 28383 ft | 447 kts | 193° |
| 2026-05-08 14:19 | 48.15368 | 2.59632 | 28702 ft | 449 kts | 193° |
| 2026-05-08 14:19 | 48.12267 | 2.58995 | 29020 ft | 452 kts | 193° |
| 2026-05-08 14:19 | 48.09144 | 2.58354 | 29326 ft | 454 kts | 193° |
| 2026-05-08 14:19 | 48.06004 | 2.57711 | 29627 ft | 457 kts | 193° |
| 2026-05-08 14:20 | 48.02844 | 2.57069 | 29919 ft | 459 kts | 193° |
| 2026-05-08 14:20 | 47.99668 | 2.56429 | 30182 ft | 462 kts | 193° |
| 2026-05-08 14:20 | 47.96476 | 2.55790 | 30428 ft | 463 kts | 193° |
| 2026-05-08 14:20 | 47.93288 | 2.55153 | 30726 ft | 463 kts | 193° |
| 2026-05-08 14:21 | 47.90129 | 2.54523 | 30979 ft | 464 kts | 193° |
| 2026-05-08 14:21 | 47.86926 | 2.53886 | 31228 ft | 465 kts | 193° |
| 2026-05-08 14:21 | 47.83673 | 2.53239 | 31477 ft | 466 kts | 193° |
| 2026-05-08 14:21 | 47.80460 | 2.52599 | 31807 ft | 464 kts | 193° |
| 2026-05-08 14:22 | 47.77263 | 2.51969 | 32110 ft | 463 kts | 192° |
| 2026-05-08 14:22 | 47.74076 | 2.51344 | 32499 ft | 461 kts | 192° |
| 2026-05-08 14:22 | 47.70948 | 2.50727 | 32863 ft | 459 kts | 192° |
| 2026-05-08 14:22 | 47.67784 | 2.50099 | 32994 ft | 456 kts | 193° |
| 2026-05-08 14:23 | 47.64644 | 2.49479 | 33008 ft | 446 kts | 193° |
| 2026-05-08 14:23 | 47.58575 | 2.48273 | 33005 ft | 441 kts | 193° |
| 2026-05-08 14:24 | 47.52508 | 2.47071 | 33007 ft | 439 kts | 193° |
| 2026-05-08 14:24 | 47.46456 | 2.45880 | 33005 ft | 438 kts | 193° |
| 2026-05-08 14:25 | 47.40415 | 2.44687 | 33000 ft | 438 kts | 193° |
| 2026-05-08 14:25 | 47.34368 | 2.43495 | 32973 ft | 438 kts | 192° |
| 2026-05-08 14:26 | 47.28337 | 2.42311 | 32996 ft | 437 kts | 192° |
| 2026-05-08 14:26 | 47.22318 | 2.41143 | 33000 ft | 436 kts | 192° |
| 2026-05-08 14:27 | 47.16303 | 2.39979 | 32995 ft | 435 kts | 192° |
| 2026-05-08 14:27 | 47.10302 | 2.38819 | 32993 ft | 435 kts | 192° |
| 2026-05-08 14:28 | 47.04315 | 2.37661 | 32999 ft | 434 kts | 192° |
| 2026-05-08 14:28 | 46.98337 | 2.36505 | 32998 ft | 433 kts | 192° |
| 2026-05-08 14:29 | 46.92350 | 2.35349 | 32980 ft | 433 kts | 192° |
| 2026-05-08 14:29 | 46.86388 | 2.34209 | 32981 ft | 433 kts | 192° |
| 2026-05-08 14:30 | 46.80546 | 2.32405 | 32978 ft | 427 kts | 199° |
| 2026-05-08 14:30 | 46.74802 | 2.30180 | 32971 ft | 427 kts | 199° |
| 2026-05-08 14:31 | 46.69046 | 2.27974 | 32972 ft | 427 kts | 199° |
| 2026-05-08 14:31 | 46.63295 | 2.25777 | 32965 ft | 427 kts | 199° |
| 2026-05-08 14:32 | 46.54671 | 2.22475 | 32932 ft | 427 kts | 199° |
| 2026-05-08 14:32 | 46.48921 | 2.20287 | 32951 ft | 426 kts | 199° |
| 2026-05-08 14:33 | 46.43199 | 2.18108 | 32956 ft | 426 kts | 199° |
| 2026-05-08 14:33 | 46.37474 | 2.15925 | 32962 ft | 425 kts | 199° |
| 2026-05-08 14:34 | 46.31760 | 2.13761 | 32956 ft | 424 kts | 198° |
| 2026-05-08 14:34 | 46.26050 | 2.11607 | 32962 ft | 423 kts | 198° |
| 2026-05-08 14:35 | 46.20354 | 2.09473 | 32966 ft | 423 kts | 198° |
| 2026-05-08 14:35 | 46.15513 | 2.08297 | 32962 ft | 426 kts | 191° |
| 2026-05-08 14:36 | 46.09648 | 2.07207 | 32962 ft | 424 kts | 191° |
| 2026-05-08 14:36 | 46.03802 | 2.06126 | 32965 ft | 423 kts | 191° |
| 2026-05-08 14:37 | 45.97965 | 2.05057 | 32966 ft | 422 kts | 191° |
| 2026-05-08 14:37 | 45.92136 | 2.03987 | 32959 ft | 421 kts | 191° |
| 2026-05-08 14:38 | 45.86333 | 2.02918 | 32973 ft | 420 kts | 191° |
| 2026-05-08 14:38 | 45.80537 | 2.01839 | 32977 ft | 419 kts | 191° |
| 2026-05-08 14:39 | 45.74717 | 2.00768 | 32965 ft | 419 kts | 191° |
| 2026-05-08 14:39 | 45.68940 | 1.99717 | 32974 ft | 418 kts | 191° |
| 2026-05-08 14:40 | 45.63178 | 1.98670 | 32980 ft | 417 kts | 191° |
| 2026-05-08 14:40 | 45.57433 | 1.97630 | 32981 ft | 416 kts | 191° |
| 2026-05-08 14:41 | 45.51733 | 1.96600 | 32980 ft | 415 kts | 191° |
| 2026-05-08 14:41 | 45.46016 | 1.95563 | 32981 ft | 414 kts | 191° |
| 2026-05-08 14:42 | 45.40306 | 1.94520 | 32986 ft | 413 kts | 191° |
| 2026-05-08 14:42 | 45.37458 | 1.94002 | 32836 ft | 410 kts | 191° |
| 2026-05-08 14:42 | 45.34607 | 1.93487 | 32560 ft | 405 kts | 190° |
| 2026-05-08 14:43 | 45.31853 | 1.92992 | 32312 ft | 402 kts | 189° |
| 2026-05-08 14:43 | 45.29087 | 1.92497 | 32052 ft | 400 kts | 189° |
| 2026-05-08 14:43 | 45.26327 | 1.92007 | 31798 ft | 399 kts | 189° |
| 2026-05-08 14:43 | 45.23577 | 1.91516 | 31537 ft | 396 kts | 189° |
| 2026-05-08 14:44 | 45.20855 | 1.91027 | 31092 ft | 393 kts | 189° |
| 2026-05-08 14:44 | 45.18154 | 1.90541 | 30617 ft | 390 kts | 189° |
| 2026-05-08 14:44 | 45.15472 | 1.90059 | 30147 ft | 387 kts | 189° |
| 2026-05-08 14:44 | 45.12811 | 1.89585 | 29633 ft | 385 kts | 188° |
| 2026-05-08 14:45 | 45.10171 | 1.89115 | 29188 ft | 380 kts | 188° |
| 2026-05-08 14:45 | 45.07555 | 1.88646 | 28737 ft | 377 kts | 188° |
| 2026-05-08 14:45 | 45.04970 | 1.88179 | 28306 ft | 373 kts | 188° |
| 2026-05-08 14:45 | 45.02412 | 1.87718 | 27875 ft | 369 kts | 188° |
| 2026-05-08 14:46 | 44.99878 | 1.87263 | 27468 ft | 365 kts | 188° |
| 2026-05-08 14:46 | 44.97365 | 1.86814 | 27053 ft | 362 kts | 188° |
| 2026-05-08 14:46 | 44.94880 | 1.86374 | 26654 ft | 358 kts | 188° |
| 2026-05-08 14:46 | 44.92424 | 1.85942 | 26259 ft | 355 kts | 188° |
| 2026-05-08 14:47 | 44.89986 | 1.85512 | 25870 ft | 351 kts | 188° |
| 2026-05-08 14:47 | 44.87570 | 1.85081 | 25432 ft | 349 kts | 188° |
| 2026-05-08 14:47 | 44.85169 | 1.84650 | 25037 ft | 346 kts | 187° |
| 2026-05-08 14:47 | 44.82790 | 1.84227 | 24620 ft | 344 kts | 187° |
| 2026-05-08 14:48 | 44.80418 | 1.83807 | 24193 ft | 342 kts | 187° |
| 2026-05-08 14:48 | 44.78061 | 1.83389 | 23770 ft | 341 kts | 187° |
| 2026-05-08 14:48 | 44.75708 | 1.82973 | 23297 ft | 340 kts | 187° |
| 2026-05-08 14:48 | 44.73366 | 1.82560 | 22842 ft | 338 kts | 187° |
| 2026-05-08 14:49 | 44.71047 | 1.82155 | 22412 ft | 335 kts | 187° |
| 2026-05-08 14:49 | 44.68741 | 1.81751 | 21987 ft | 333 kts | 187° |
| 2026-05-08 14:49 | 44.66450 | 1.81349 | 21573 ft | 331 kts | 187° |
| 2026-05-08 14:49 | 44.64171 | 1.80948 | 21154 ft | 329 kts | 187° |
| 2026-05-08 14:50 | 44.61911 | 1.80551 | 20744 ft | 327 kts | 187° |
| 2026-05-08 14:50 | 44.59658 | 1.80156 | 20328 ft | 325 kts | 187° |
| 2026-05-08 14:50 | 44.57414 | 1.79763 | 19928 ft | 324 kts | 187° |
| 2026-05-08 14:50 | 44.55185 | 1.79372 | 19525 ft | 323 kts | 187° |
| 2026-05-08 14:51 | 44.52959 | 1.78984 | 19114 ft | 322 kts | 187° |
| 2026-05-08 14:51 | 44.50747 | 1.78596 | 18728 ft | 321 kts | 187° |
| 2026-05-08 14:51 | 44.48536 | 1.78207 | 18332 ft | 320 kts | 187° |
| 2026-05-08 14:51 | 44.46335 | 1.77821 | 17900 ft | 318 kts | 187° |
| 2026-05-08 14:52 | 44.44142 | 1.77437 | 17423 ft | 318 kts | 187° |
| 2026-05-08 14:52 | 44.39798 | 1.76681 | 16742 ft | 311 kts | 187° |
| 2026-05-08 14:52 | 44.37662 | 1.76308 | 16369 ft | 309 kts | 187° |
| 2026-05-08 14:53 | 44.35537 | 1.75937 | 15992 ft | 307 kts | 187° |
| 2026-05-08 14:53 | 44.33417 | 1.75566 | 15629 ft | 323 kts | 187° |
| 2026-05-08 14:53 | 44.31117 | 1.75130 | 15219 ft | 334 kts | 191° |
| 2026-05-08 14:53 | 44.28941 | 1.74134 | 14822 ft | 334 kts | 205° |
| 2026-05-08 14:54 | 44.26963 | 1.72431 | 14391 ft | 334 kts | 213° |
| 2026-05-08 14:54 | 44.25058 | 1.70591 | 13970 ft | 333 kts | 213° |
| 2026-05-08 14:54 | 44.23150 | 1.68759 | 13517 ft | 332 kts | 213° |
| 2026-05-08 14:54 | 44.21251 | 1.66945 | 13064 ft | 330 kts | 213° |
| 2026-05-08 14:55 | 44.19358 | 1.65141 | 12699 ft | 328 kts | 213° |
| 2026-05-08 14:55 | 44.17485 | 1.63356 | 12273 ft | 325 kts | 213° |
| 2026-05-08 14:55 | 44.15621 | 1.61583 | 11847 ft | 324 kts | 213° |
| 2026-05-08 14:55 | 44.13765 | 1.59817 | 11503 ft | 319 kts | 213° |
| 2026-05-08 14:56 | 44.11972 | 1.58112 | 11371 ft | 307 kts | 213° |
| 2026-05-08 14:56 | 44.10237 | 1.56457 | 11203 ft | 298 kts | 213° |
| 2026-05-08 14:56 | 44.08552 | 1.54853 | 11026 ft | 289 kts | 213° |
| 2026-05-08 14:56 | 44.06902 | 1.53289 | 10790 ft | 288 kts | 213° |
| 2026-05-08 14:57 | 44.05234 | 1.51694 | 10479 ft | 292 kts | 213° |
| 2026-05-08 14:57 | 44.03569 | 1.50097 | 10195 ft | 288 kts | 213° |
| 2026-05-08 14:57 | 44.01933 | 1.48533 | 9846 ft | 286 kts | 213° |
| 2026-05-08 14:57 | 44.00268 | 1.46976 | 9108 ft | 290 kts | 213° |
| 2026-05-08 14:58 | 43.98602 | 1.45399 | 8504 ft | 291 kts | 216° |
| 2026-05-08 14:58 | 43.97190 | 1.43450 | 8174 ft | 282 kts | 231° |
| 2026-05-08 14:58 | 43.96005 | 1.41312 | 7719 ft | 277 kts | 229° |
| 2026-05-08 14:58 | 43.94800 | 1.39233 | 7268 ft | 276 kts | 227° |
| 2026-05-08 14:59 | 43.93591 | 1.37174 | 6710 ft | 275 kts | 228° |
| 2026-05-08 14:59 | 43.91162 | 1.33077 | 5712 ft | 275 kts | 227° |
| 2026-05-08 14:59 | 43.89934 | 1.31039 | 5382 ft | 276 kts | 227° |
| 2026-05-08 15:00 | 43.88711 | 1.29006 | 5023 ft | 274 kts | 227° |
| 2026-05-08 15:00 | 43.87499 | 1.26976 | 4608 ft | 272 kts | 227° |
| 2026-05-08 15:00 | 43.86210 | 1.25149 | 4439 ft | 257 kts | 212° |
| 2026-05-08 15:00 | 43.84709 | 1.23974 | 4312 ft | 241 kts | 202° |
| 2026-05-08 15:01 | 43.83221 | 1.22987 | 4101 ft | 234 kts | 202° |
| 2026-05-08 15:01 | 43.81769 | 1.22010 | 3862 ft | 230 kts | 202° |
| 2026-05-08 15:01 | 43.80331 | 1.21141 | 3642 ft | 221 kts | 191° |
| 2026-05-08 15:01 | 43.78847 | 1.20964 | 3424 ft | 210 kts | 169° |
| 2026-05-08 15:02 | 43.77476 | 1.21514 | 3208 ft | 202 kts | 151° |
| 2026-05-08 15:02 | 43.76330 | 1.22566 | 3042 ft | 194 kts | 141° |
| 2026-05-08 15:02 | 43.75291 | 1.23668 | 2960 ft | 182 kts | 141° |
| 2026-05-08 15:02 | 43.74304 | 1.24709 | 2927 ft | 176 kts | 141° |
| 2026-05-08 15:03 | 43.73330 | 1.25741 | 2797 ft | 175 kts | 141° |
| 2026-05-08 15:03 | 43.72365 | 1.26754 | 2624 ft | 173 kts | 141° |
| 2026-05-08 15:03 | 43.71428 | 1.27741 | 2369 ft | 163 kts | 141° |
| 2026-05-08 15:03 | 43.70560 | 1.28645 | 2138 ft | 148 kts | 141° |
| 2026-05-08 15:04 | 43.69765 | 1.29477 | 1919 ft | 140 kts | 141° |
| 2026-05-08 15:04 | 43.68996 | 1.30280 | 1766 ft | 138 kts | 141° |
| 2026-05-08 15:04 | 43.68225 | 1.31086 | 1603 ft | 140 kts | 141° |
| 2026-05-08 15:04 | 43.67450 | 1.31896 | 1434 ft | 140 kts | 141° |
| 2026-05-08 15:05 | 43.66678 | 1.32704 | 1264 ft | 139 kts | 142° |
| 2026-05-08 15:05 | 43.65894 | 1.33521 | 1074 ft | 143 kts | 142° |
| 2026-05-08 15:05 | 43.65100 | 1.34347 | 879 ft | 143 kts | 143° |
| 2026-05-08 15:05 | 43.64317 | 1.35161 | 678 ft | 138 kts | 142° |
| 2026-05-08 15:06 | 43.63556 | 1.35951 | 503 ft | 136 kts | 142° |
| 2026-05-08 15:06 | 43.62919 | 1.36615 | 489 ft | 91 kts | 143° |
| 2026-05-08 15:06 | 43.62582 | 1.36964 | 491 ft | 33 kts | 143° |
| 2026-05-08 15:06 | 43.62482 | 1.37100 | 488 ft | 17 kts | 105° |
| 2026-05-08 15:07 | 43.62504 | 1.37237 | 489 ft | 9 kts | 60° |
| 2026-05-08 15:07 | 43.62555 | 1.37287 | 490 ft | 8 kts | 4° |
| 2026-05-08 15:07 | 43.62602 | 1.37262 | 491 ft | 7 kts | 339° |
| 2026-05-08 15:07 | 43.62649 | 1.37216 | 494 ft | 11 kts | 322° |
| 2026-05-08 15:08 | 43.62724 | 1.37129 | 491 ft | 18 kts | 320° |
| 2026-05-08 15:08 | 43.62786 | 1.37062 | 494 ft | 17 kts | 323° |
| 2026-05-08 15:08 | 43.62900 | 1.36943 | 494 ft | 13 kts | 325° |
| 2026-05-08 15:08 | 43.62965 | 1.36980 | 490 ft | 10 kts | 52° |
| 2026-05-08 15:09 | 43.63015 | 1.37032 | 490 ft | 9 kts | 23° |
| 2026-05-08 15:09 | 43.63066 | 1.37066 | 489 ft | 8 kts | 28° |
| 2026-05-08 15:09 | 43.63105 | 1.37095 | 488 ft | 4 kts | 29° |
| 2026-05-08 15:09 | 43.63126 | 1.37112 | 494 ft | 2 kts | 28° |
| 2026-05-08 15:10 | 43.63129 | 1.37113 | 494 ft | 0 kts | 28° |
| 2026-05-08 15:11 | 43.63128 | 1.37113 | 494 ft | 0 kts | 28° |